KAIA/AIA METAR and TAF weather

Enter ICAO airport designator
Station Type Date Time Source
KAIA METAR 2019/06/26 16:53 UTC NOAA

KAIA 261653Z AUTO 11008KT 10SM CLR 25/18 A2998 RMK AO2 SLP113 T02500178


Station Type Date Time Source
KAIA Decoded METAR 2019/06/26 16:53 UTC NOAA

ALLIANCE MUNICIPAL AIRPORT, NE, United States (KAIA) 42-03N 102-48W 1196M
Jun 26, 2019 - 12:53 PM EDT / 2019.06.26 1653 UTC
Wind: from the ESE (110 degrees) at 9 MPH (8 KT):0
Visibility: 10 mile(s):0
Sky conditions: clear
Temperature: 77.0 F (25.0 C)
Dew Point: 64.0 F (17.8 C)
Relative Humidity: 64%
Pressure (altimeter): 29.98 in. Hg (1015 hPa)
ob: KAIA 261653Z AUTO 11008KT 10SM CLR 25/18 A2998 RMK AO2 SLP113 T02500178
cycle: 17

Station Type Date Time Source
KAIA TAF 2019/06/26 12:22 UTC NOAA

TAF KAIA 261120Z 2612/2712 VRB03KT P6SM SKC
TEMPO 2612/2614 3SM BR SCT015
FM261800 10010G20KT P6SM SCT080
FM262100 10010G20KT P6SM VCTS BKN080CB
FM270100 09012KT P6SM BKN100
FM270600 21007KT P6SM SKC

Example: see airport list